Time;durP1;ratioP1;P1;durP2;ratioP2;P2;SDS_P1;SDS_P2;PMS_P1;PMS_P2;Temp;Humidity;BMP_temperature;BMP_pressure;BME280_temperature;BME280_humidity;BME280_pressure;Samples;Min_cycle;Max_cycle;Signal;HPM_P1;HPM_P2
2022/08/20 00:00:52;;;;;;;7.22;4.18;;;20.00;99.90;;;;;;4991975;28;20150;-75
2022/08/20 00:03:30;;;;;;;6.68;4.20;;;20.00;99.90;;;;;;4986048;28;20118;-77
2022/08/20 00:06:06;;;;;;;11.02;5.72;;;20.00;99.90;;;;;;4989578;28;20109;-76
2022/08/20 00:08:32;;;;;;;11.10;5.60;;;19.90;99.90;;;;;;5047122;28;20045;-77
2022/08/20 00:10:59;;;;;;;12.52;5.20;;;19.90;99.90;;;;;;5067556;28;20350;-78
2022/08/20 00:13:45;;;;;;;14.20;5.30;;;19.90;99.90;;;;;;5066112;28;20028;-77
2022/08/20 00:16:12;;;;;;;12.20;5.60;;;19.90;99.90;;;;;;5058745;28;20136;-76
2022/08/20 00:18:40;;;;;;;13.15;6.07;;;19.90;99.90;;;;;;5073013;28;20016;-77
2022/08/20 00:21:08;;;;;;;13.52;4.95;;;19.90;99.90;;;;;;5069050;28;20021;-76
2022/08/20 00:23:39;;;;;;;19.05;6.10;;;19.90;99.90;;;;;;5060956;28;20025;-77
2022/08/20 00:26:06;;;;;;;10.10;5.00;;;19.90;99.90;;;;;;5069678;28;20411;-75
2022/08/20 00:28:31;;;;;;;13.82;5.63;;;19.90;99.90;;;;;;5072007;28;20025;-77
2022/08/20 00:30:57;;;;;;;11.50;4.72;;;19.90;99.90;;;;;;5073157;28;20040;-77
2022/08/20 00:33:24;;;;;;;14.65;5.50;;;19.90;99.90;;;;;;5061981;28;20071;-76
2022/08/20 00:35:55;;;;;;;15.48;5.32;;;19.90;99.90;;;;;;5064172;28;20051;-77
2022/08/20 00:38:21;;;;;;;10.05;4.70;;;19.80;99.90;;;;;;5059087;28;20025;-76
2022/08/20 00:40:54;;;;;;;10.05;4.60;;;19.80;99.90;;;;;;5072610;28;20033;-77
2022/08/20 00:43:45;;;;;;;14.25;5.15;;;19.80;99.90;;;;;;5072300;28;20032;-78
2022/08/20 00:46:26;;;;;;;11.02;4.85;;;19.70;99.90;;;;;;5062507;28;20501;-77
2022/08/20 00:48:55;;;;;;;10.60;4.82;;;19.70;99.90;;;;;;5036028;28;20032;-77
2022/08/20 00:51:25;;;;;;;13.68;5.80;;;19.70;99.90;;;;;;5066091;28;20021;-77
2022/08/20 00:53:53;;;;;;;11.85;5.43;;;19.70;99.90;;;;;;5062022;28;20032;-77
2022/08/20 00:56:19;;;;;;;12.90;4.90;;;19.60;99.90;;;;;;5064145;28;20029;-76
2022/08/20 00:58:45;;;;;;;15.82;6.00;;;19.60;99.90;;;;;;5054725;28;20380;-77
2022/08/20 01:01:12;;;;;;;17.20;5.65;;;19.60;99.90;;;;;;5054010;28;20037;-77
2022/08/20 01:03:38;;;;;;;14.55;5.75;;;19.60;99.90;;;;;;5066397;28;20040;-77
2022/08/20 01:06:04;;;;;;;14.13;5.60;;;19.60;99.90;;;;;;5060592;28;20023;-77
2022/08/20 01:08:30;;;;;;;14.70;5.97;;;19.60;99.90;;;;;;5062501;28;20028;-77
2022/08/20 01:13:54;;;;;;;12.15;6.63;;;19.60;99.90;;;;;;5035196;28;20043;-77
2022/08/20 01:16:26;;;;;;;14.27;6.32;;;19.50;99.90;;;;;;5063461;28;20032;-76
2022/08/20 01:18:53;;;;;;;18.15;7.82;;;19.50;99.90;;;;;;5056634;28;20061;-77
2022/08/20 01:21:22;;;;;;;15.80;7.43;;;19.50;99.90;;;;;;5056042;28;20430;-77
2022/08/20 01:23:59;;;;;;;13.75;8.23;;;19.50;99.90;;;;;;5066502;28;20028;-77
2022/08/20 01:26:39;;;;;;;14.52;7.32;;;19.40;99.90;;;;;;5065959;28;20024;-77
2022/08/20 01:29:16;;;;;;;17.25;7.65;;;19.40;99.90;;;;;;5053869;28;20039;-77
2022/08/20 01:31:42;;;;;;;15.77;7.18;;;19.40;99.90;;;;;;5057244;28;20423;-77
2022/08/20 01:34:12;;;;;;;14.65;7.28;;;19.40;99.90;;;;;;5071856;28;20112;-77
2022/08/20 01:36:44;;;;;;;15.73;7.05;;;19.40;99.90;;;;;;5065198;28;20036;-77
2022/08/20 01:39:12;;;;;;;14.40;6.57;;;19.30;99.90;;;;;;5071668;28;20048;-77
2022/08/20 01:42:10;;;;;;;14.57;6.65;;;19.30;99.90;;;;;;5071313;28;20111;-77
2022/08/20 01:44:37;;;;;;;13.82;6.07;;;19.30;99.90;;;;;;5060574;28;20115;-77
2022/08/20 01:47:19;;;;;;;10.70;5.97;;;19.20;99.90;;;;;;5063396;28;20373;-77
2022/08/20 01:49:50;;;;;;;13.05;6.20;;;19.20;99.90;;;;;;5068418;28;20043;-77
2022/08/20 01:52:46;;;;;;;11.63;5.65;;;19.20;99.90;;;;;;5042960;28;20317;-77
2022/08/20 01:55:12;;;;;;;15.73;6.10;;;19.20;99.90;;;;;;5062444;28;20127;-77
2022/08/20 01:57:38;;;;;;;13.60;6.10;;;19.20;99.90;;;;;;5060211;28;20033;-77
2022/08/20 02:00:08;;;;;;;13.18;5.65;;;19.20;99.90;;;;;;5067929;28;20514;-77
2022/08/20 02:02:34;;;;;;;13.90;5.72;;;19.20;99.90;;;;;;5070912;28;20029;-77
2022/08/20 02:05:00;;;;;;;12.80;5.18;;;19.20;99.90;;;;;;5069377;28;20126;-77
2022/08/20 02:07:26;;;;;;;13.13;5.50;;;19.20;99.90;;;;;;5062111;28;20470;-77
2022/08/20 02:09:51;;;;;;;10.50;5.03;;;19.10;99.90;;;;;;5034793;28;20048;-76
2022/08/20 02:12:17;;;;;;;14.98;5.50;;;19.10;99.90;;;;;;5070338;28;20480;-77
2022/08/20 02:14:47;;;;;;;13.75;5.18;;;19.10;99.90;;;;;;5070986;28;20489;-77
2022/08/20 02:17:14;;;;;;;10.25;4.90;;;19.10;99.90;;;;;;5066483;28;20024;-77
2022/08/20 02:19:44;;;;;;;9.88;4.47;;;19.00;99.90;;;;;;5054198;28;20104;-77
2022/08/20 02:22:35;;;;;;;13.32;4.53;;;19.00;99.90;;;;;;5050829;28;20025;-77
2022/08/20 02:25:03;;;;;;;13.48;4.90;;;19.10;99.90;;;;;;5063247;28;20099;-77
2022/08/20 02:27:30;;;;;;;15.43;5.00;;;19.00;99.90;;;;;;5040343;28;20104;-77
2022/08/20 02:29:55;;;;;;;10.02;4.75;;;19.00;99.90;;;;;;5061313;28;20420;-77
2022/08/20 02:32:21;;;;;;;12.50;5.03;;;19.00;99.90;;;;;;5054567;28;20036;-77
2022/08/20 02:34:48;;;;;;;11.50;4.47;;;18.90;99.90;;;;;;5064007;28;20036;-77
2022/08/20 02:37:15;;;;;;;11.45;4.90;;;18.90;99.90;;;;;;5066581;28;20157;-77
2022/08/20 02:39:41;;;;;;;10.35;4.78;;;18.90;99.90;;;;;;5062725;28;20073;-77
2022/08/20 02:42:08;;;;;;;8.60;4.97;;;18.80;99.90;;;;;;5068332;28;20032;-77
2022/08/20 02:44:34;;;;;;;12.13;4.85;;;18.80;99.90;;;;;;5069309;28;20051;-77
2022/08/20 02:47:00;;;;;;;9.27;4.47;;;18.80;99.90;;;;;;5060242;28;20560;-77
2022/08/20 02:49:26;;;;;;;11.93;4.90;;;18.70;99.90;;;;;;5039954;28;20426;-77
2022/08/20 02:51:52;;;;;;;10.60;4.80;;;18.70;99.90;;;;;;5058733;28;20029;-77
2022/08/20 02:54:17;;;;;;;11.55;4.85;;;18.70;99.90;;;;;;5055717;28;20021;-77
2022/08/20 02:56:43;;;;;;;10.88;4.95;;;18.70;99.90;;;;;;5063845;28;20032;-77
2022/08/20 02:59:08;;;;;;;11.88;5.00;;;18.60;99.90;;;;;;5058648;28;20021;-76
2022/08/20 03:01:35;;;;;;;11.18;4.88;;;18.60;99.90;;;;;;5069949;28;20056;-76
2022/08/20 03:04:01;;;;;;;11.20;4.68;;;18.60;99.90;;;;;;5069846;28;20028;-77
2022/08/20 03:06:27;;;;;;;12.43;5.25;;;18.50;99.90;;;;;;5054063;28;20032;-77
2022/08/20 03:08:53;;;;;;;13.27;5.68;;;18.50;99.90;;;;;;5059439;28;20024;-77
2022/08/20 03:11:19;;;;;;;13.30;5.57;;;18.50;99.90;;;;;;5068431;28;20020;-77
2022/08/20 03:13:45;;;;;;;8.60;4.88;;;18.40;99.90;;;;;;5045471;28;20036;-77
2022/08/20 03:16:11;;;;;;;13.50;5.30;;;18.40;99.90;;;;;;5062133;28;20131;-76
2022/08/20 03:18:41;;;;;;;12.35;5.50;;;18.30;99.90;;;;;;5055996;28;20040;-76
2022/08/20 03:21:08;;;;;;;12.27;4.95;;;18.30;99.90;;;;;;5058823;28;20032;-77
2022/08/20 03:23:35;;;;;;;12.57;5.55;;;18.30;99.90;;;;;;5066945;28;20032;-78
2022/08/20 03:26:04;;;;;;;10.32;5.47;;;18.30;99.90;;;;;;5069732;28;20457;-77
2022/08/20 03:28:30;;;;;;;14.48;5.28;;;18.20;99.90;;;;;;5058874;28;20025;-77
2022/08/20 03:30:55;;;;;;;13.73;5.28;;;18.20;99.90;;;;;;5062293;28;20043;-76
2022/08/20 03:33:22;;;;;;;10.18;5.00;;;18.10;99.90;;;;;;5063806;28;20473;-77
2022/08/20 03:35:48;;;;;;;17.02;5.55;;;18.10;99.90;;;;;;5055653;28;20029;-77
2022/08/20 03:38:15;;;;;;;12.02;5.20;;;18.00;99.90;;;;;;5061494;28;20043;-77
2022/08/20 03:40:41;;;;;;;8.13;5.28;;;18.00;99.90;;;;;;5065461;28;20456;-77
2022/08/20 03:43:08;;;;;;;10.23;4.82;;;18.00;99.90;;;;;;5049875;28;20048;-77
2022/08/20 03:45:35;;;;;;;9.65;4.85;;;17.90;99.90;;;;;;5039254;28;20032;-76
2022/08/20 03:48:02;;;;;;;9.85;5.03;;;17.90;99.90;;;;;;5065136;28;20017;-77
2022/08/20 03:50:30;;;;;;;10.98;5.35;;;17.90;99.90;;;;;;5036011;28;20074;-77
2022/08/20 03:52:56;;;;;;;8.55;5.35;;;17.80;99.90;;;;;;5069803;28;20037;-77
2022/08/20 03:55:23;;;;;;;10.23;5.32;;;17.80;99.90;;;;;;5044620;28;20605;-77
2022/08/20 03:57:55;;;;;;;8.55;5.40;;;17.80;99.90;;;;;;5068106;28;20295;-77
2022/08/20 04:00:35;;;;;;;14.05;5.93;;;17.70;99.90;;;;;;5058011;28;20028;-77
2022/08/20 04:03:00;;;;;;;12.07;5.72;;;17.70;99.90;;;;;;5062751;28;20033;-77
2022/08/20 04:05:29;;;;;;;14.00;5.63;;;17.70;99.90;;;;;;5057335;28;20046;-77
2022/08/20 04:07:57;;;;;;;10.07;5.97;;;17.60;99.90;;;;;;5069434;28;20017;-77
2022/08/20 04:10:24;;;;;;;10.60;5.90;;;17.60;99.90;;;;;;5056432;28;20032;-78
2022/08/20 04:12:49;;;;;;;13.40;6.63;;;17.50;99.90;;;;;;5070066;28;20427;-77
2022/08/20 04:15:16;;;;;;;13.90;6.75;;;17.50;99.90;;;;;;5068072;28;20024;-77
2022/08/20 04:17:46;;;;;;;15.15;6.28;;;17.50;99.90;;;;;;5069444;28;20033;-77
2022/08/20 04:20:17;;;;;;;11.57;6.63;;;17.50;99.90;;;;;;5055522;28;20020;-78
2022/08/20 04:22:43;;;;;;;13.45;6.30;;;17.50;99.90;;;;;;5062701;28;20054;-77
2022/08/20 04:25:09;;;;;;;12.98;6.65;;;17.50;99.90;;;;;;5073029;28;20024;-77
2022/08/20 04:27:38;;;;;;;12.68;6.95;;;17.40;99.90;;;;;;5073359;28;20017;-77
2022/08/20 04:30:06;;;;;;;13.88;6.90;;;17.40;99.90;;;;;;5069467;28;20024;-77
2022/08/20 04:32:35;;;;;;;11.38;6.00;;;17.40;99.90;;;;;;5053297;28;20055;-78
2022/08/20 04:35:06;;;;;;;11.00;6.20;;;17.30;99.90;;;;;;5066832;28;20419;-77
2022/08/20 04:37:32;;;;;;;14.73;6.85;;;17.30;99.90;;;;;;5057132;28;20087;-78
2022/08/20 04:42:49;;;;;;;13.85;7.40;;;17.30;99.90;;;;;;5063166;28;20580;-77
2022/08/20 04:45:15;;;;;;;13.23;6.85;;;17.20;99.90;;;;;;5064351;28;20104;-77
2022/08/20 04:47:41;;;;;;;11.90;6.68;;;17.20;99.90;;;;;;5072438;28;20029;-76
2022/08/20 04:50:09;;;;;;;14.10;7.05;;;17.20;99.90;;;;;;5065125;28;20385;-77
2022/08/20 04:52:35;;;;;;;14.60;7.45;;;17.20;99.90;;;;;;5066513;28;20041;-77
2022/08/20 04:55:01;;;;;;;11.95;7.50;;;17.20;99.90;;;;;;5072500;28;20491;-77
2022/08/20 04:57:26;;;;;;;11.18;6.97;;;17.10;99.90;;;;;;5065934;28;20119;-77
2022/08/20 04:59:53;;;;;;;12.18;7.00;;;17.20;99.90;;;;;;5056612;28;20024;-78
2022/08/20 05:02:19;;;;;;;14.65;7.18;;;17.10;99.90;;;;;;5058848;28;20383;-77
2022/08/20 05:04:46;;;;;;;11.63;7.30;;;17.10;99.90;;;;;;5064410;28;20477;-77
2022/08/20 05:07:13;;;;;;;12.65;7.50;;;17.10;99.90;;;;;;5058010;28;20012;-76
2022/08/20 05:09:39;;;;;;;11.57;6.93;;;17.10;99.90;;;;;;5061641;28;20059;-77
2022/08/20 05:12:06;;;;;;;11.25;6.93;;;17.10;99.90;;;;;;5072253;28;20017;-77
2022/08/20 05:14:31;;;;;;;9.27;6.60;;;17.10;99.90;;;;;;5059361;28;20257;-77
2022/08/20 05:16:57;;;;;;;11.02;7.07;;;17.00;99.90;;;;;;5039001;28;20036;-79
2022/08/20 05:19:23;;;;;;;13.50;7.22;;;17.00;99.90;;;;;;5060554;28;20101;-77
2022/08/20 05:21:52;;;;;;;13.85;7.88;;;17.00;99.90;;;;;;5070235;28;20380;-77
2022/08/20 05:24:18;;;;;;;11.63;6.97;;;17.00;99.90;;;;;;5062477;28;20053;-77
2022/08/20 05:26:44;;;;;;;11.95;6.78;;;17.00;99.90;;;;;;5067553;28;20111;-76
2022/08/20 05:29:10;;;;;;;14.98;8.48;;;17.00;99.90;;;;;;5064353;28;20143;-77
2022/08/20 05:31:36;;;;;;;15.07;7.53;;;17.00;99.90;;;;;;5064670;28;20036;-77
2022/08/20 05:34:08;;;;;;;18.42;7.88;;;17.10;99.90;;;;;;5063679;28;20023;-77
2022/08/20 05:36:34;;;;;;;14.48;7.72;;;17.10;99.90;;;;;;5064162;28;20044;-76
2022/08/20 05:38:59;;;;;;;14.40;7.88;;;17.10;99.90;;;;;;5071082;28;20055;-77
2022/08/20 05:41:28;;;;;;;14.23;8.50;;;17.10;99.90;;;;;;5072652;28;20047;-76
2022/08/20 05:43:54;;;;;;;17.65;8.10;;;17.10;99.90;;;;;;5062510;28;20025;-77
2022/08/20 05:46:20;;;;;;;15.48;7.63;;;17.10;99.90;;;;;;5051633;28;20074;-77
2022/08/20 05:48:49;;;;;;;12.98;7.65;;;17.10;99.90;;;;;;5051111;28;20094;-76
2022/08/20 05:51:18;;;;;;;13.40;8.02;;;17.10;99.90;;;;;;5064273;28;20060;-77
2022/08/20 05:53:43;;;;;;;14.45;7.95;;;17.20;99.90;;;;;;5070990;28;20021;-76
2022/08/20 05:56:12;;;;;;;14.45;7.93;;;17.20;99.90;;;;;;5048849;28;20033;-77
2022/08/20 05:58:37;;;;;;;17.60;8.77;;;17.20;99.90;;;;;;5067873;28;20028;-76
2022/08/20 06:01:03;;;;;;;17.35;8.48;;;17.30;99.90;;;;;;5070981;28;20430;-77
2022/08/20 06:06:14;;;;;;;14.98;8.88;;;17.30;99.90;;;;;;5071735;28;20170;-77
2022/08/20 06:08:40;;;;;;;17.17;9.30;;;17.40;99.90;;;;;;5069466;28;20044;-77
2022/08/20 06:11:06;;;;;;;16.98;9.57;;;17.40;99.90;;;;;;5067082;28;20372;-77
2022/08/20 06:13:35;;;;;;;17.13;9.20;;;17.50;99.90;;;;;;5064515;28;20453;-78
2022/08/20 06:16:01;;;;;;;20.92;9.32;;;17.50;99.90;;;;;;5067763;28;20029;-76
2022/08/20 06:18:26;;;;;;;14.55;9.05;;;17.50;99.90;;;;;;5069987;28;20020;-77
2022/08/20 06:20:52;;;;;;;14.65;8.85;;;17.60;99.90;;;;;;5066721;28;20025;-76
2022/08/20 06:23:18;;;;;;;15.10;9.82;;;17.60;99.90;;;;;;5069007;28;20464;-75
2022/08/20 06:25:44;;;;;;;22.52;8.98;;;17.60;99.90;;;;;;5064018;28;20029;-78
2022/08/20 06:28:13;;;;;;;22.20;9.38;;;17.70;99.90;;;;;;5060276;28;20036;-77
2022/08/20 06:30:39;;;;;;;16.80;8.73;;;17.80;99.90;;;;;;5066981;28;20028;-77
2022/08/20 06:33:04;;;;;;;15.18;8.80;;;17.80;99.90;;;;;;5071221;28;20430;-77
2022/08/20 06:35:31;;;;;;;18.80;8.82;;;17.80;99.90;;;;;;5048858;28;20547;-77
2022/08/20 06:37:59;;;;;;;16.98;7.97;;;17.80;99.90;;;;;;5068906;28;20373;-76
2022/08/20 06:40:27;;;;;;;15.50;8.10;;;17.90;99.90;;;;;;5066235;28;20514;-77
2022/08/20 06:42:53;;;;;;;17.90;7.45;;;17.90;99.90;;;;;;5068564;28;20043;-77
2022/08/20 06:45:26;;;;;;;19.55;7.43;;;18.00;99.90;;;;;;5063822;28;20075;-75
2022/08/20 06:47:57;;;;;;;14.65;6.25;;;18.00;99.90;;;;;;5065071;28;20036;-77
2022/08/20 06:50:38;;;;;;;18.83;6.35;;;18.00;99.90;;;;;;5058617;28;20025;-77
2022/08/20 06:53:08;;;;;;;15.77;6.93;;;18.00;99.90;;;;;;5068938;28;20103;-77
2022/08/20 06:55:35;;;;;;;16.13;6.70;;;18.10;99.90;;;;;;5051216;28;20491;-77
2022/08/20 06:58:06;;;;;;;17.00;6.78;;;18.10;99.90;;;;;;5069788;28;20025;-77
2022/08/20 07:00:34;;;;;;;21.42;6.88;;;18.20;99.90;;;;;;5069405;28;20008;-77
2022/08/20 07:03:01;;;;;;;15.32;6.10;;;18.10;99.90;;;;;;5070813;28;20025;-77
2022/08/20 07:05:28;;;;;;;17.35;6.60;;;18.20;99.90;;;;;;5070557;28;20060;-77
2022/08/20 07:07:54;;;;;;;12.88;6.20;;;18.30;99.90;;;;;;5070878;28;20423;-77
2022/08/20 07:10:21;;;;;;;15.65;5.88;;;18.30;99.90;;;;;;5069206;28;20017;-77
2022/08/20 07:12:49;;;;;;;16.60;4.65;;;18.40;99.90;;;;;;5066167;28;20017;-77
2022/08/20 07:15:16;;;;;;;11.43;4.00;;;18.50;99.90;;;;;;5064454;28;20032;-77
2022/08/20 07:17:41;;;;;;;13.63;3.53;;;18.60;99.90;;;;;;5064369;28;20029;-77
2022/08/20 07:20:11;;;;;;;12.15;3.47;;;18.70;99.90;;;;;;5067159;28;20031;-77
2022/08/20 07:22:36;;;;;;;13.75;3.22;;;18.70;99.90;;;;;;5066713;28;20079;-77
2022/08/20 07:25:04;;;;;;;9.15;2.92;;;18.80;99.90;;;;;;5068610;28;20074;-74
2022/08/20 07:27:30;;;;;;;9.35;2.70;;;18.90;99.90;;;;;;5063754;28;20052;-75
2022/08/20 07:32:40;;;;;;;12.15;3.13;;;19.20;99.90;;;;;;5068805;28;20519;-75
2022/08/20 07:35:10;;;;;;;12.15;2.88;;;19.30;99.90;;;;;;5069391;28;20040;-76
2022/08/20 07:37:41;;;;;;;13.32;3.13;;;19.40;99.90;;;;;;5072692;28;20273;-75
2022/08/20 07:40:10;;;;;;;11.48;2.72;;;19.50;99.90;;;;;;5070453;28;20036;-75
2022/08/20 07:42:38;;;;;;;15.45;2.70;;;19.60;99.90;;;;;;5036061;28;20377;-75
2022/08/20 07:45:09;;;;;;;9.68;2.53;;;19.70;99.90;;;;;;5066536;28;20024;-76
2022/08/20 07:47:36;;;;;;;8.15;2.50;;;19.80;99.90;;;;;;5069407;28;20032;-75
2022/08/20 07:50:02;;;;;;;12.98;2.83;;;19.90;99.90;;;;;;5062501;28;20021;-75
2022/08/20 07:52:28;;;;;;;7.60;2.55;;;20.00;99.90;;;;;;5062815;28;20013;-75
2022/08/20 07:54:54;;;;;;;13.77;2.65;;;20.10;99.90;;;;;;5055036;28;20027;-75
2022/08/20 07:57:19;;;;;;;9.48;2.45;;;20.20;99.90;;;;;;5071577;28;20020;-75
2022/08/20 07:59:45;;;;;;;16.77;2.58;;;20.40;99.90;;;;;;5059604;28;20053;-76
2022/08/20 08:02:11;;;;;;;12.45;2.90;;;20.50;99.90;;;;;;5069478;28;20012;-75
2022/08/20 08:04:37;;;;;;;10.00;2.58;;;20.60;99.90;;;;;;5061266;28;20470;-75
2022/08/20 08:07:04;;;;;;;12.38;2.40;;;20.80;99.90;;;;;;5066647;28;20019;-74
2022/08/20 08:09:32;;;;;;;12.50;2.58;;;20.90;99.90;;;;;;5048253;28;20024;-75
2022/08/20 08:11:59;;;;;;;8.80;2.47;;;21.10;99.90;;;;;;5067291;28;20496;-75
2022/08/20 08:14:28;;;;;;;12.25;2.55;;;21.20;99.90;;;;;;5057488;28;20071;-75
2022/08/20 08:16:57;;;;;;;11.60;2.55;;;21.40;99.90;;;;;;5054783;28;20029;-74
2022/08/20 08:19:25;;;;;;;10.75;2.45;;;21.50;99.90;;;;;;5063658;28;20108;-75
2022/08/20 08:21:50;;;;;;;9.85;2.28;;;21.60;99.90;;;;;;5070192;28;20032;-74
2022/08/20 08:24:16;;;;;;;13.25;2.50;;;21.70;99.90;;;;;;5064389;28;20024;-75
2022/08/20 08:26:43;;;;;;;8.88;1.83;;;21.80;99.90;;;;;;5054876;28;20552;-75
2022/08/20 08:29:09;;;;;;;8.05;2.25;;;22.00;99.90;;;;;;5066049;28;20021;-76
2022/08/20 08:31:34;;;;;;;8.52;1.98;;;22.00;99.90;;;;;;5070517;28;20017;-75
2022/08/20 08:34:00;;;;;;;11.93;2.42;;;22.10;99.90;;;;;;5071869;28;20028;-76
2022/08/20 08:36:26;;;;;;;7.93;1.83;;;22.20;99.90;;;;;;5050413;28;20085;-75
2022/08/20 08:38:53;;;;;;;12.15;2.20;;;22.30;99.90;;;;;;5070507;28;20048;-75
2022/08/20 08:41:35;;;;;;;9.02;2.08;;;22.40;99.90;;;;;;5044397;28;20017;-75
2022/08/20 08:44:06;;;;;;;14.65;2.20;;;22.60;99.90;;;;;;5067570;28;20074;-74
2022/08/20 08:46:39;;;;;;;9.15;2.30;;;22.80;99.90;;;;;;5062906;28;20012;-76
2022/08/20 08:49:05;;;;;;;14.70;2.95;;;22.90;99.90;;;;;;5073035;28;20013;-76
2022/08/20 08:51:46;;;;;;;9.75;2.47;;;23.10;99.90;;;;;;5058369;28;20033;-76
2022/08/20 08:54:17;;;;;;;11.18;2.63;;;23.20;99.90;;;;;;5070043;28;20469;-75
2022/08/20 08:56:43;;;;;;;15.15;2.65;;;23.40;99.90;;;;;;5059774;28;20078;-75
2022/08/20 08:59:09;;;;;;;11.18;2.45;;;23.60;99.90;;;;;;5061027;28;20195;-75
2022/08/20 09:01:45;;;;;;;11.93;2.28;;;23.80;99.90;;;;;;5055043;28;20113;-75
2022/08/20 09:04:16;;;;;;;15.80;2.60;;;24.00;99.90;;;;;;5060998;28;20052;-75
2022/08/20 09:06:43;;;;;;;11.02;2.80;;;24.20;99.10;;;;;;5062086;28;20014;-75
2022/08/20 09:09:31;;;;;;;11.05;2.70;;;24.30;97.80;;;;;;5071712;28;20028;-76
2022/08/20 09:12:09;;;;;;;13.20;2.92;;;24.50;96.70;;;;;;5072011;28;20020;-75
2022/08/20 09:14:35;;;;;;;11.95;2.72;;;24.60;96.50;;;;;;5057441;28;20163;-75
2022/08/20 09:17:02;;;;;;;11.27;2.65;;;24.70;95.90;;;;;;5071168;28;20068;-76
2022/08/20 09:19:28;;;;;;;9.98;2.67;;;24.60;94.30;;;;;;5061256;28;20025;-75
2022/08/20 09:21:54;;;;;;;9.52;2.47;;;24.50;93.70;;;;;;5069403;28;20023;-76
2022/08/20 09:24:19;;;;;;;12.18;2.58;;;24.50;93.80;;;;;;5068718;28;20032;-75
2022/08/20 09:26:45;;;;;;;12.15;2.53;;;24.50;93.90;;;;;;5054641;28;20513;-79
2022/08/20 09:29:11;;;;;;;7.60;2.25;;;24.50;92.70;;;;;;5072438;28;20021;-77
2022/08/20 09:31:37;;;;;;;11.63;2.70;;;24.30;92.50;;;;;;5071179;28;20032;-77
2022/08/20 09:34:03;;;;;;;10.18;2.25;;;24.20;92.40;;;;;;5070072;28;20108;-78
2022/08/20 09:36:28;;;;;;;10.82;2.40;;;24.10;92.00;;;;;;5068409;28;20064;-77
2022/08/20 09:38:54;;;;;;;11.05;2.45;;;23.90;92.30;;;;;;5065604;28;20051;-75
2022/08/20 09:41:20;;;;;;;9.63;2.55;;;23.80;92.30;;;;;;5065081;28;20034;-75
2022/08/20 09:43:45;;;;;;;12.48;2.60;;;23.60;92.50;;;;;;5068638;28;20017;-76
2022/08/20 09:46:11;;;;;;;8.68;2.53;;;23.60;92.60;;;;;;5051686;28;20429;-75
2022/08/20 09:48:36;;;;;;;10.93;2.35;;;23.60;92.70;;;;;;5067372;28;20032;-75
2022/08/20 09:51:02;;;;;;;10.50;2.28;;;23.70;92.30;;;;;;5060717;28;20016;-74
2022/08/20 09:53:29;;;;;;;11.00;2.00;;;23.70;91.70;;;;;;5072737;28;20029;-74
2022/08/20 09:55:55;;;;;;;13.63;2.65;;;23.70;90.90;;;;;;5072411;28;20028;-76
2022/08/20 09:58:31;;;;;;;11.10;2.17;;;23.70;90.30;;;;;;5061582;28;20033;-77
2022/08/20 10:00:58;;;;;;;12.73;2.28;;;23.70;90.10;;;;;;5067033;28;20039;-79
2022/08/20 10:03:23;;;;;;;14.23;2.58;;;23.90;90.40;;;;;;5071746;28;20060;-78
2022/08/20 10:05:49;;;;;;;7.95;2.05;;;23.90;89.60;;;;;;5071797;28;20049;-74
2022/08/20 10:08:15;;;;;;;10.00;1.98;;;24.00;89.00;;;;;;5072568;28;20066;-80
2022/08/20 10:10:40;;;;;;;10.40;2.50;;;24.00;89.00;;;;;;5068699;28;20432;-79
2022/08/20 10:13:06;;;;;;;8.88;2.10;;;24.10;88.90;;;;;;5070135;28;20024;-78
2022/08/20 10:15:32;;;;;;;10.32;2.28;;;24.10;89.00;;;;;;5075373;28;20021;-79
2022/08/20 10:18:02;;;;;;;10.18;2.10;;;24.20;87.80;;;;;;5074972;28;20009;-79
2022/08/20 10:20:28;;;;;;;8.27;2.05;;;24.20;87.30;;;;;;5069206;28;20024;-80
2022/08/20 10:22:54;;;;;;;10.00;2.35;;;24.20;86.80;;;;;;5070840;28;20036;-79
2022/08/20 10:25:19;;;;;;;7.78;1.85;;;24.20;86.30;;;;;;5070414;28;20474;-83
2022/08/20 10:27:45;;;;;;;8.60;2.15;;;24.30;85.10;;;;;;5070467;28;20439;-82
2022/08/20 10:30:11;;;;;;;6.05;1.80;;;24.30;84.60;;;;;;5049552;28;20067;-81
2022/08/20 10:32:36;;;;;;;9.25;2.08;;;24.30;83.40;;;;;;5070354;28;20074;-79
2022/08/20 10:35:03;;;;;;;10.85;2.53;;;24.30;82.90;;;;;;5063527;28;20020;-78
2022/08/20 10:37:28;;;;;;;8.65;2.00;;;24.40;83.00;;;;;;5069179;28;20434;-79
2022/08/20 10:39:54;;;;;;;9.02;2.13;;;24.40;82.90;;;;;;5068360;28;20045;-82
2022/08/20 10:42:20;;;;;;;7.68;1.75;;;24.40;82.80;;;;;;5062197;28;20025;-80
2022/08/20 10:44:46;;;;;;;8.70;2.00;;;24.40;82.90;;;;;;5044977;28;20036;-80
2022/08/20 10:47:17;;;;;;;11.13;2.05;;;24.40;82.80;;;;;;5041597;28;20036;-80
2022/08/20 10:49:42;;;;;;;9.18;2.20;;;24.40;82.60;;;;;;5067002;28;20019;-80
2022/08/20 10:52:08;;;;;;;9.65;1.95;;;24.40;82.60;;;;;;5071129;28;20103;-80
2022/08/20 10:54:34;;;;;;;11.27;2.20;;;24.40;82.10;;;;;;5068390;28;20028;-80
2022/08/20 10:57:03;;;;;;;11.18;2.33;;;24.50;82.60;;;;;;5065980;28;20033;-78
2022/08/20 10:59:29;;;;;;;9.18;1.92;;;24.50;81.60;;;;;;5070814;28;20024;-80
2022/08/20 11:01:55;;;;;;;10.93;2.20;;;24.50;82.30;;;;;;5071450;28;20025;-77
2022/08/20 11:04:20;;;;;;;9.57;1.92;;;24.50;81.50;;;;;;5070350;28;20397;-78
2022/08/20 11:06:46;;;;;;;11.95;2.50;;;24.50;81.60;;;;;;5071120;28;20397;-77
2022/08/20 11:09:11;;;;;;;9.20;2.00;;;24.50;82.20;;;;;;5076906;28;20024;-77
2022/08/20 11:11:37;;;;;;;11.50;2.45;;;24.50;82.40;;;;;;5061444;28;20375;-79
2022/08/20 11:14:02;;;;;;;9.57;1.98;;;24.50;81.80;;;;;;5051020;28;20373;-77
2022/08/20 11:16:28;;;;;;;9.75;1.95;;;24.40;82.20;;;;;;5067389;28;20036;-79
2022/08/20 11:18:54;;;;;;;10.95;2.00;;;24.50;82.80;;;;;;5035179;28;20049;-79
2022/08/20 11:21:20;;;;;;;10.25;2.40;;;24.50;82.50;;;;;;5055583;28;20527;-79
2022/08/20 11:23:45;;;;;;;8.48;1.88;;;24.60;82.80;;;;;;5064746;28;20103;-79
2022/08/20 11:26:20;;;;;;;12.00;2.65;;;24.60;82.30;;;;;;5070088;28;20064;-79
2022/08/20 11:28:46;;;;;;;;;;;24.50;82.90;;;;;;5072873;28;20056;-80
2022/08/20 11:31:11;;;;;;;8.38;2.25;;;24.50;83.20;;;;;;5076922;28;19912;-82
2022/08/20 11:33:37;;;;;;;9.10;2.10;;;24.40;83.60;;;;;;5074411;28;20088;-80
2022/08/20 11:36:03;;;;;;;8.38;2.10;;;24.40;83.90;;;;;;5075472;28;20029;-81
2022/08/20 11:38:28;;;;;;;11.93;2.17;;;24.40;84.90;;;;;;5075467;28;20551;-81
2022/08/20 11:40:54;;;;;;;9.73;2.30;;;24.30;83.80;;;;;;5070040;28;20074;-81
2022/08/20 11:43:20;;;;;;;9.77;2.10;;;24.40;84.30;;;;;;5072301;28;20025;-78
2022/08/20 11:45:48;;;;;;;10.05;1.98;;;24.40;83.90;;;;;;5072243;28;20056;-76
2022/08/20 11:48:14;;;;;;;8.30;2.47;;;24.50;83.80;;;;;;5064844;28;20017;-76
2022/08/20 11:50:39;;;;;;;9.45;2.20;;;24.50;83.70;;;;;;5066130;28;20035;-78
2022/08/20 11:53:05;;;;;;;10.63;2.40;;;24.40;83.80;;;;;;5069087;28;20031;-77
2022/08/20 11:55:30;;;;;;;9.77;2.58;;;24.30;85.40;;;;;;5075328;28;20027;-77
2022/08/20 11:57:57;;;;;;;12.43;2.80;;;24.30;87.20;;;;;;5071767;28;20257;-77
2022/08/20 12:00:23;;;;;;;9.82;2.58;;;24.20;88.50;;;;;;5064292;28;20044;-75
2022/08/20 12:02:50;;;;;;;8.13;2.20;;;24.10;88.90;;;;;;5071729;28;20016;-78
2022/08/20 12:05:17;;;;;;;8.32;2.58;;;24.00;89.60;;;;;;5055862;28;20029;-76
2022/08/20 12:07:43;;;;;;;11.60;2.38;;;23.90;89.70;;;;;;5039206;28;20116;-76
2022/08/20 12:10:09;;;;;;;9.63;2.47;;;23.90;90.10;;;;;;5070636;28;20107;-77
2022/08/20 12:12:36;;;;;;;9.50;2.40;;;23.90;90.50;;;;;;5070689;28;20021;-76
2022/08/20 12:15:02;;;;;;;9.00;2.58;;;23.90;90.50;;;;;;5060796;28;20113;-76
2022/08/20 12:17:31;;;;;;;8.90;2.30;;;23.90;90.10;;;;;;5057814;28;20029;-76
2022/08/20 12:19:58;;;;;;;12.57;2.45;;;23.80;89.80;;;;;;5056062;28;20029;-76
2022/08/20 12:22:24;;;;;;;8.40;2.65;;;23.80;89.40;;;;;;5065392;28;20370;-76
2022/08/20 12:24:50;;;;;;;8.25;2.22;;;23.70;90.10;;;;;;5066474;28;20016;-76
2022/08/20 12:27:27;;;;;;;9.77;2.60;;;23.70;90.30;;;;;;5043768;28;20750;-76
2022/08/20 12:29:55;;;;;;;11.15;2.50;;;23.90;90.70;;;;;;5058485;28;20021;-76
2022/08/20 12:32:23;;;;;;;7.60;1.98;;;23.80;90.60;;;;;;5061041;28;20021;-76
2022/08/20 12:34:49;;;;;;;9.13;2.30;;;23.80;90.30;;;;;;5065170;28;20025;-77
2022/08/20 12:37:18;;;;;;;10.52;2.53;;;23.90;89.50;;;;;;5068908;28;20067;-77
2022/08/20 12:39:46;;;;;;;9.45;2.25;;;24.10;89.30;;;;;;5066271;28;20120;-77
2022/08/20 12:42:13;;;;;;;8.98;2.40;;;24.40;89.00;;;;;;5071429;28;20028;-77
2022/08/20 12:44:39;;;;;;;13.32;2.63;;;24.50;88.70;;;;;;5065944;28;20024;-77
2022/08/20 12:47:09;;;;;;;9.25;2.35;;;24.70;88.60;;;;;;5051905;28;20070;-76
2022/08/20 12:49:35;;;;;;;6.03;1.90;;;24.90;87.90;;;;;;5057890;28;20554;-73
2022/08/20 12:52:01;;;;;;;8.65;1.90;;;25.00;88.20;;;;;;5051490;28;20016;-73
2022/08/20 12:54:27;;;;;;;10.75;2.33;;;25.10;88.10;;;;;;5059590;28;20021;-73